createdAt,value
2018-03-15T00:01:48.931Z,95.26
2018-03-15T00:02:48.964Z,95.17
2018-03-15T00:04:41.942Z,95.45
2018-03-15T00:05:41.997Z,95.64
2018-03-15T00:07:35.503Z,95.64
2018-03-15T00:08:35.536Z,95.45
2018-03-15T00:10:28.562Z,95.45
2018-03-15T00:11:28.578Z,95.07
2018-03-15T00:13:21.559Z,95.64
2018-03-15T00:14:21.613Z,94.89
2018-03-15T00:16:14.616Z,95.36
2018-03-15T00:17:14.648Z,95.74
2018-03-15T00:19:07.631Z,94.98
2018-03-15T00:20:07.709Z,95.36
2018-03-15T00:22:00.673Z,94.89
2018-03-15T00:23:00.711Z,94.60
2018-03-15T00:24:53.684Z,94.51
2018-03-15T00:25:53.738Z,94.70
2018-03-15T00:27:46.734Z,94.70
2018-03-15T00:28:46.768Z,94.70
2018-03-15T00:30:39.745Z,94.60
2018-03-15T00:31:39.801Z,94.79
2018-03-15T00:33:32.795Z,94.70
2018-03-15T00:34:32.831Z,94.60
2018-03-15T00:36:25.839Z,94.51
2018-03-15T00:37:25.862Z,94.60
2018-03-15T00:39:18.834Z,94.13
2018-03-15T00:40:18.888Z,94.04
2018-03-15T00:42:11.882Z,94.42
2018-03-15T00:43:11.917Z,94.32
2018-03-15T00:45:04.898Z,94.23
2018-03-15T00:46:04.956Z,94.79
2018-03-15T00:47:57.954Z,94.79
2018-03-15T00:48:57.986Z,95.26
2018-03-15T00:50:50.960Z,94.60
2018-03-15T00:51:51.014Z,94.42
2018-03-15T00:53:44.009Z,94.32
2018-03-15T00:54:44.045Z,94.89
2018-03-15T00:56:37.018Z,94.42
2018-03-15T00:57:37.074Z,93.84
2018-03-15T00:59:30.068Z,93.94
2018-03-15T01:00:30.117Z,94.23
2018-03-15T01:02:23.077Z,93.84
2018-03-15T01:03:23.132Z,94.42
2018-03-15T01:05:16.128Z,93.94
2018-03-15T01:06:16.163Z,94.13
2018-03-15T01:08:09.136Z,93.46
2018-03-15T01:09:09.193Z,93.65
2018-03-15T01:11:02.183Z,93.56
2018-03-15T01:12:02.218Z,93.56
2018-03-15T01:13:55.214Z,93.08
2018-03-15T01:14:55.264Z,93.18
2018-03-15T01:16:48.226Z,93.46
2018-03-15T01:17:48.281Z,93.27
2018-03-15T01:19:41.293Z,93.37
2018-03-15T01:20:41.313Z,92.80
2018-03-15T01:22:34.288Z,93.37
2018-03-15T01:23:34.342Z,93.37
2018-03-15T01:25:27.344Z,93.18
2018-03-15T01:26:27.370Z,92.80
2018-03-15T01:28:20.348Z,93.56
2018-03-15T01:29:20.448Z,93.56
2018-03-15T01:31:13.394Z,92.99
2018-03-15T01:32:13.431Z,93.37
2018-03-15T01:34:06.403Z,93.08
2018-03-15T01:35:06.459Z,93.27
2018-03-15T01:36:59.450Z,93.08
2018-03-15T01:37:59.502Z,93.46
2018-03-15T01:39:52.477Z,93.08
2018-03-15T01:40:52.527Z,93.37
2018-03-15T01:42:45.516Z,93.27
2018-03-15T01:43:45.551Z,93.27
2018-03-15T01:45:38.545Z,93.27
2018-03-15T01:46:38.579Z,93.27
2018-03-15T01:48:31.555Z,93.37
2018-03-15T01:49:31.615Z,93.08
2018-03-15T01:51:24.609Z,93.37
2018-03-15T01:52:24.644Z,93.18
2018-03-15T01:54:17.626Z,93.46
2018-03-15T01:55:17.676Z,93.27
2018-03-15T01:57:10.670Z,93.46
2018-03-15T01:58:10.706Z,93.08
2018-03-15T02:00:03.686Z,92.99
2018-03-15T02:01:03.736Z,92.99
2018-03-15T02:02:56.732Z,92.80
2018-03-15T02:03:56.768Z,93.18
2018-03-15T02:05:49.743Z,92.61
2018-03-15T02:06:49.795Z,92.99
2018-03-15T02:08:42.792Z,92.43
2018-03-15T02:09:42.824Z,92.24
2018-03-15T02:11:35.801Z,92.99
2018-03-15T02:12:35.855Z,92.90
2018-03-15T02:14:28.854Z,93.27
2018-03-15T02:15:28.892Z,92.99
2018-03-15T02:17:21.868Z,93.08
2018-03-15T02:18:21.922Z,92.80
2018-03-15T02:20:14.914Z,93.08
2018-03-15T02:21:14.948Z,93.18
2018-03-15T02:23:07.944Z,93.37
2018-03-15T02:24:07.980Z,93.65
2018-03-15T02:26:00.953Z,93.37
2018-03-15T02:27:01.008Z,93.08
2018-03-15T02:28:54.001Z,93.18
2018-03-15T02:29:54.070Z,93.46
2018-03-15T02:31:47.009Z,94.04
2018-03-15T02:32:47.065Z,94.04
2018-03-15T02:34:40.071Z,94.51
2018-03-15T02:35:40.109Z,94.23
2018-03-15T02:37:33.083Z,94.13
2018-03-15T02:38:33.136Z,94.60
2018-03-15T02:40:26.133Z,94.32
2018-03-15T02:41:26.174Z,94.23
2018-03-15T02:43:19.139Z,94.23
2018-03-15T02:44:19.195Z,94.32
2018-03-15T02:46:12.195Z,94.42
2018-03-15T02:47:12.232Z,94.42
2018-03-15T02:49:05.733Z,94.42
2018-03-15T02:50:05.770Z,94.89
2018-03-15T02:51:58.737Z,94.60
2018-03-15T02:52:58.791Z,94.60
2018-03-15T02:54:51.787Z,95.17
2018-03-15T02:55:51.837Z,94.79
2018-03-15T02:57:44.794Z,95.07
2018-03-15T02:58:44.848Z,95.07
2018-03-15T03:00:37.850Z,95.07
2018-03-15T03:01:37.888Z,94.89
2018-03-15T03:03:30.864Z,94.70
2018-03-15T03:04:30.920Z,95.26
2018-03-15T03:06:23.916Z,95.55
2018-03-15T03:07:23.951Z,96.12
2018-03-15T03:09:16.971Z,96.02
2018-03-15T03:10:16.977Z,96.02
2018-03-15T03:12:09.975Z,96.40
2018-03-15T03:13:10.013Z,96.40
2018-03-15T03:15:03.010Z,96.02
2018-03-15T03:16:03.045Z,96.40
2018-03-15T03:17:56.020Z,95.45
2018-03-15T03:18:56.075Z,95.36
2018-03-15T03:20:49.071Z,96.02
2018-03-15T03:21:49.103Z,96.31
2018-03-15T03:23:42.085Z,96.21
2018-03-15T03:24:42.138Z,95.83
2018-03-15T03:26:35.135Z,95.83
2018-03-15T03:27:35.171Z,95.83
2018-03-15T03:29:28.147Z,96.02
2018-03-15T03:30:28.202Z,96.12
2018-03-15T03:32:21.195Z,95.83
2018-03-15T03:33:21.229Z,95.74
2018-03-15T03:35:14.204Z,95.45
2018-03-15T03:36:14.259Z,95.07
2018-03-15T03:38:07.337Z,95.45
2018-03-15T03:39:07.373Z,95.64
2018-03-15T03:41:00.386Z,94.98
2018-03-15T03:42:00.401Z,94.98
2018-03-15T03:43:53.379Z,95.17
2018-03-15T03:44:53.434Z,94.98
2018-03-15T03:46:46.439Z,94.98
2018-03-15T03:47:46.477Z,95.17
2018-03-15T03:49:39.959Z,94.89
2018-03-15T03:50:40.010Z,95.17
2018-03-15T03:52:33.002Z,94.79
2018-03-15T03:53:33.038Z,94.79
2018-03-15T03:55:26.008Z,95.26
2018-03-15T03:56:26.064Z,94.70
2018-03-15T03:58:19.058Z,94.79
2018-03-15T03:59:19.092Z,94.79
2018-03-15T04:01:12.074Z,94.89
2018-03-15T04:02:12.132Z,94.70
2018-03-15T04:04:05.128Z,95.17
2018-03-15T04:05:05.156Z,94.98
2018-03-15T04:06:58.128Z,94.98
2018-03-15T04:07:58.182Z,95.17
2018-03-15T04:09:51.183Z,94.89
2018-03-15T04:10:51.214Z,95.17
2018-03-15T04:12:44.200Z,95.26
2018-03-15T04:13:44.242Z,94.79
2018-03-15T04:15:37.241Z,96.12
2018-03-15T04:16:37.283Z,95.45
2018-03-15T04:18:30.249Z,95.64
2018-03-15T04:19:30.303Z,95.93
2018-03-15T04:21:23.295Z,95.07
2018-03-15T04:22:23.328Z,95.26
2018-03-15T04:24:16.304Z,94.60
2018-03-15T04:25:16.358Z,94.89
2018-03-15T04:27:09.349Z,94.65
2018-03-15T04:28:09.386Z,94.79
2018-03-15T04:30:02.378Z,95.17
2018-03-15T04:31:02.417Z,95.45
2018-03-15T04:32:55.389Z,96.02
2018-03-15T04:33:55.443Z,95.26
2018-03-15T04:35:48.438Z,95.64
2018-03-15T04:36:48.476Z,95.17
2018-03-15T04:38:41.448Z,95.17
2018-03-15T04:39:41.504Z,95.12
2018-03-15T04:41:34.502Z,94.70
2018-03-15T04:42:34.533Z,94.98
2018-03-15T04:44:27.504Z,95.55
2018-03-15T04:45:27.558Z,95.55
2018-03-15T04:47:20.552Z,96.02
2018-03-15T04:48:20.588Z,95.55
2018-03-15T04:50:13.565Z,95.74
2018-03-15T04:51:13.632Z,96.21
2018-03-15T04:53:06.614Z,96.12
2018-03-15T04:54:06.650Z,95.93
2018-03-15T04:55:59.631Z,96.40
2018-03-15T04:56:59.681Z,96.12
2018-03-15T04:58:52.677Z,96.12
2018-03-15T04:59:52.708Z,96.02
2018-03-15T05:01:45.721Z,95.55
2018-03-15T05:02:45.739Z,96.02
2018-03-15T05:04:38.720Z,96.21
2018-03-15T05:05:38.772Z,96.97
2018-03-15T05:07:31.767Z,96.88
2018-03-15T05:08:31.802Z,96.59
2018-03-15T05:10:24.774Z,96.97
2018-03-15T05:11:24.828Z,96.69
2018-03-15T05:13:17.823Z,96.97
2018-03-15T05:14:17.855Z,96.21
2018-03-15T05:16:10.829Z,96.12
2018-03-15T05:17:10.885Z,95.74
2018-03-15T05:19:03.889Z,96.21
2018-03-15T05:20:03.913Z,96.12
2018-03-15T05:21:56.888Z,95.93
2018-03-15T05:22:56.940Z,96.59
2018-03-15T05:24:49.932Z,96.40
2018-03-15T05:25:49.967Z,96.12
2018-03-15T05:27:42.962Z,96.40
2018-03-15T05:28:43.007Z,96.59
2018-03-15T05:30:35.999Z,96.78
2018-03-15T05:31:36.043Z,96.78
2018-03-15T05:33:29.032Z,96.50
2018-03-15T05:34:29.066Z,96.59
2018-03-15T05:36:22.043Z,96.59
2018-03-15T05:37:22.093Z,96.59
2018-03-15T05:39:15.093Z,96.88
2018-03-15T05:40:15.127Z,96.78
2018-03-15T05:42:08.103Z,97.16
2018-03-15T05:43:08.158Z,97.06
2018-03-15T05:45:01.151Z,97.16
2018-03-15T05:46:01.184Z,96.88
2018-03-15T05:47:54.170Z,96.78
2018-03-15T05:48:54.225Z,96.69
2018-03-15T05:50:47.221Z,96.88
2018-03-15T05:51:47.257Z,96.78
2018-03-15T05:53:40.240Z,96.69
2018-03-15T05:54:40.294Z,96.69
2018-03-15T05:56:33.345Z,96.78
2018-03-15T05:57:33.327Z,96.78
2018-03-15T05:59:26.366Z,96.88
2018-03-15T06:00:26.366Z,97.06
2018-03-15T06:02:19.364Z,96.69
2018-03-15T06:03:19.398Z,96.59
2018-03-15T06:05:12.416Z,96.88
2018-03-15T06:06:12.432Z,96.88
2018-03-15T06:08:05.406Z,96.88
2018-03-15T06:09:05.460Z,97.16
2018-03-15T06:10:58.457Z,96.69
2018-03-15T06:11:58.489Z,97.06
2018-03-15T06:13:51.470Z,97.16
2018-03-15T06:14:51.523Z,97.92
2018-03-15T06:16:44.520Z,97.35
2018-03-15T06:17:44.556Z,96.69
2018-03-15T06:19:37.530Z,97.16
2018-03-15T06:20:37.587Z,96.88
2018-03-15T06:22:30.581Z,97.06
2018-03-15T06:23:30.615Z,97.35
2018-03-15T06:25:23.598Z,97.63
2018-03-15T06:26:23.652Z,97.44
2018-03-15T06:28:16.654Z,97.63
2018-03-15T06:29:16.691Z,97.49
2018-03-15T06:31:09.693Z,97.73
2018-03-15T06:32:09.731Z,97.82
2018-03-15T06:34:02.725Z,97.87
2018-03-15T06:35:02.761Z,97.68
2018-03-15T06:36:55.763Z,97.87
2018-03-15T06:37:55.798Z,97.87
2018-03-15T06:39:48.777Z,98.44
2018-03-15T06:40:48.830Z,98.25
2018-03-15T06:42:41.830Z,98.82
2018-03-15T06:43:41.866Z,98.63
2018-03-15T06:45:34.848Z,98.63
2018-03-15T06:46:34.897Z,98.63
2018-03-15T06:48:27.904Z,98.82
2018-03-15T06:49:27.937Z,98.63
2018-03-15T06:51:20.918Z,99.48
2018-03-15T06:52:20.973Z,98.68
2018-03-15T06:54:13.994Z,98.58
2018-03-15T06:55:14.031Z,99.15
2018-03-15T06:57:07.027Z,98.77
2018-03-15T06:58:07.064Z,99.34
2018-03-15T07:00:00.047Z,99.72
2018-03-15T07:01:00.102Z,99.82
2018-03-15T07:02:53.108Z,99.91
2018-03-15T07:03:53.167Z,99.68
2018-03-15T07:05:46.127Z,99.68
2018-03-15T07:06:46.179Z,99.96
2018-03-15T07:08:39.174Z,99.20
2018-03-15T07:09:39.209Z,99.99
2018-03-15T07:11:32.207Z,99.40
2018-03-15T07:12:32.254Z,98.35
2018-03-15T07:14:25.245Z,96.22
2018-03-15T07:15:25.280Z,95.12
2018-03-15T07:17:18.288Z,91.22
2018-03-15T07:18:18.324Z,89.85
2018-03-15T07:20:11.330Z,89.94
2018-03-15T07:21:11.368Z,88.37
2018-03-15T07:23:04.377Z,88.28
2018-03-15T07:24:04.414Z,86.94
2018-03-15T07:25:57.395Z,80.18
2018-03-15T07:26:57.453Z,77.93
2018-03-15T07:28:50.452Z,77.56
2018-03-15T07:29:50.491Z,78.75
2018-03-15T07:31:43.474Z,76.46
2018-03-15T07:32:43.538Z,75.45
2018-03-15T07:34:36.537Z,70.76
2018-03-15T07:35:36.578Z,69.58
2018-03-15T07:37:29.563Z,72.27
2018-03-15T07:38:29.626Z,74.18
2018-03-15T07:40:23.139Z,72.12
2018-03-15T07:41:23.175Z,70.78
2018-03-15T07:43:16.171Z,71.26
2018-03-15T07:44:16.229Z,71.68
2018-03-15T07:46:09.245Z,70.31
2018-03-15T07:47:09.275Z,70.97
2018-03-15T07:49:02.298Z,73.22
2018-03-15T07:50:02.322Z,73.89
2018-03-15T07:51:55.308Z,73.17
2018-03-15T07:52:55.364Z,71.20
2018-03-15T07:54:48.371Z,70.53
2018-03-15T07:55:48.413Z,70.97
2018-03-15T07:57:41.401Z,67.99
2018-03-15T07:58:41.457Z,68.44
2018-03-15T08:00:34.472Z,70.59
2018-03-15T08:01:34.514Z,69.74
2018-03-15T08:03:27.509Z,70.78
2018-03-15T08:04:27.572Z,69.74
2018-03-15T08:06:20.585Z,70.50
2018-03-15T08:07:20.665Z,70.06
2018-03-15T08:09:13.657Z,69.26
2018-03-15T08:10:13.683Z,70.47
2018-03-15T08:12:06.673Z,74.04
2018-03-15T08:13:06.755Z,74.80
2018-03-15T08:14:59.742Z,75.70
2018-03-15T08:15:59.822Z,74.21
2018-03-15T08:17:52.778Z,72.65
2018-03-15T08:18:52.838Z,72.65
2018-03-15T08:20:45.852Z,72.02
2018-03-15T08:21:45.895Z,71.17
2018-03-15T08:23:38.884Z,70.25
2018-03-15T08:24:38.940Z,70.25
2018-03-15T08:26:31.946Z,69.10
2018-03-15T08:27:31.986Z,68.40
2018-03-15T08:29:24.980Z,71.19
2018-03-15T08:30:25.041Z,73.03
2018-03-15T08:32:18.048Z,71.93
2018-03-15T08:33:18.090Z,71.07
2018-03-15T08:35:11.082Z,70.27
2018-03-15T08:36:11.145Z,70.88
2018-03-15T08:38:04.155Z,69.23
2018-03-15T08:39:04.197Z,70.75
2018-03-15T08:40:57.709Z,69.74
2018-03-15T08:41:57.759Z,68.50
2018-03-15T08:43:50.774Z,70.69
2018-03-15T08:44:50.805Z,70.21
2018-03-15T08:46:43.821Z,69.01
2018-03-15T08:47:43.863Z,68.34
2018-03-15T08:49:36.856Z,68.38
2018-03-15T08:50:36.918Z,66.94
2018-03-15T08:52:29.942Z,67.00
2018-03-15T08:53:29.977Z,67.14
2018-03-15T08:55:22.972Z,66.72
2018-03-15T08:56:23.032Z,68.44
2018-03-15T08:58:16.054Z,70.50
2018-03-15T08:59:16.092Z,70.84
2018-03-15T09:01:09.086Z,70.59
2018-03-15T09:02:09.184Z,71.51
2018-03-15T09:04:02.167Z,71.55
2018-03-15T09:05:02.214Z,72.08
2018-03-15T09:06:55.200Z,76.52
2018-03-15T09:07:55.256Z,79.43
2018-03-15T09:09:48.267Z,84.52
2018-03-15T09:10:48.305Z,84.72
2018-03-15T09:12:41.295Z,86.80
2018-03-15T09:13:41.359Z,87.28
2018-03-15T09:15:34.362Z,87.76
2018-03-15T09:16:34.404Z,87.95
2018-03-15T09:18:27.417Z,88.23
2018-03-15T09:19:27.465Z,87.95
2018-03-15T09:21:20.443Z,88.80
2018-03-15T09:22:20.503Z,88.52
2018-03-15T09:24:13.510Z,87.95
2018-03-15T09:25:13.549Z,87.76
2018-03-15T09:27:06.530Z,87.95
2018-03-15T09:28:06.589Z,88.23
2018-03-15T09:29:59.595Z,87.99
2018-03-15T09:30:59.635Z,87.66
2018-03-15T09:32:52.617Z,87.57
2018-03-15T09:33:52.676Z,88.61
2018-03-15T09:35:45.679Z,89.23
2018-03-15T09:36:45.714Z,88.42
2018-03-15T09:38:38.707Z,88.46
2018-03-15T09:39:38.767Z,89.04
2018-03-15T09:41:31.770Z,88.56
2018-03-15T09:42:31.803Z,88.13
2018-03-15T09:44:24.789Z,88.80
2018-03-15T09:45:24.844Z,88.94
2018-03-15T09:47:17.848Z,88.66
2018-03-15T09:48:17.890Z,88.71
2018-03-15T09:50:10.909Z,89.28
2018-03-15T09:51:10.960Z,88.80
2018-03-15T09:53:03.924Z,88.80
2018-03-15T09:54:03.980Z,89.18
2018-03-15T09:55:56.989Z,89.47
2018-03-15T09:56:57.019Z,88.90
2018-03-15T09:58:50.004Z,88.94
2018-03-15T09:59:50.068Z,88.75
2018-03-15T10:01:43.060Z,89.04
2018-03-15T10:02:43.098Z,89.14
2018-03-15T10:04:36.077Z,88.85
2018-03-15T10:05:36.134Z,88.37
2018-03-15T10:07:29.144Z,88.37
2018-03-15T10:08:29.183Z,88.75
2018-03-15T10:10:22.174Z,87.99
2018-03-15T10:11:22.231Z,88.66
2018-03-15T10:13:15.243Z,88.28
2018-03-15T10:14:15.283Z,87.56
2018-03-15T10:16:08.306Z,87.94
2018-03-15T10:17:08.331Z,87.94
2018-03-15T10:19:01.319Z,87.85
2018-03-15T10:20:01.380Z,88.32
2018-03-15T10:21:54.382Z,86.85
2018-03-15T10:22:54.421Z,87.37
2018-03-15T10:24:47.406Z,86.18
2018-03-15T10:25:47.466Z,86.80
2018-03-15T10:27:40.467Z,87.65
2018-03-15T10:28:40.505Z,87.90
2018-03-15T10:30:33.490Z,87.46
2018-03-15T10:31:33.550Z,87.90
2018-03-15T10:33:26.550Z,87.75
2018-03-15T10:34:26.591Z,87.37
2018-03-15T10:36:19.586Z,87.75
2018-03-15T10:37:19.684Z,87.85
2018-03-15T10:39:12.658Z,86.51
2018-03-15T10:40:12.687Z,86.22
2018-03-15T10:42:05.688Z,87.46
2018-03-15T10:43:05.727Z,87.27
2018-03-15T10:44:58.714Z,86.80
2018-03-15T10:45:58.774Z,86.80
2018-03-15T10:47:51.778Z,85.85
2018-03-15T10:48:51.816Z,86.04
2018-03-15T10:50:44.799Z,84.99
2018-03-15T10:51:44.854Z,85.94
2018-03-15T10:53:37.869Z,86.22
2018-03-15T10:54:37.902Z,85.18
2018-03-15T10:56:30.884Z,86.80
2018-03-15T10:57:30.941Z,87.18
2018-03-15T10:59:23.953Z,87.79
2018-03-15T11:00:24.007Z,85.80
2018-03-15T11:02:16.990Z,83.22
2018-03-15T11:03:17.052Z,81.60
2018-03-15T11:05:10.057Z,82.84
2018-03-15T11:06:10.098Z,83.47
2018-03-15T11:08:03.092Z,83.22
2018-03-15T11:09:03.151Z,83.98
2018-03-15T11:10:56.157Z,84.65
2018-03-15T11:11:56.198Z,82.93
2018-03-15T11:13:49.210Z,83.89
2018-03-15T11:14:49.274Z,84.17
2018-03-15T11:16:42.242Z,81.89
2018-03-15T11:17:42.298Z,83.61
2018-03-15T11:19:35.350Z,81.60
2018-03-15T11:20:35.346Z,81.41
2018-03-15T11:22:28.325Z,81.32
2018-03-15T11:23:28.384Z,81.84
2018-03-15T11:25:21.388Z,81.93
2018-03-15T11:26:21.426Z,80.60
2018-03-15T11:28:14.416Z,80.12
2018-03-15T11:29:14.476Z,81.07
2018-03-15T11:31:07.483Z,81.46
2018-03-15T11:32:07.515Z,79.97
2018-03-15T11:34:00.531Z,79.30
2018-03-15T11:35:00.566Z,79.55
2018-03-15T11:36:53.553Z,78.06
2018-03-15T11:37:53.621Z,77.64
2018-03-15T11:39:46.625Z,78.59
2018-03-15T11:40:46.666Z,77.74
2018-03-15T11:42:39.646Z,77.01
2018-03-15T11:43:39.705Z,76.73
2018-03-15T11:45:32.707Z,75.87
2018-03-15T11:46:32.745Z,75.87
2018-03-15T11:48:25.753Z,78.54
2018-03-15T11:49:25.806Z,75.78
2018-03-15T11:51:18.804Z,73.21
2018-03-15T11:52:18.843Z,74.73
2018-03-15T11:54:11.841Z,73.21
2018-03-15T11:55:11.895Z,73.65
2018-03-15T11:57:04.906Z,75.45
2018-03-15T11:58:04.947Z,75.40
2018-03-15T11:59:57.956Z,75.87
2018-03-15T12:00:57.984Z,75.96
2018-03-15T12:02:50.973Z,77.40
2018-03-15T12:03:51.036Z,76.82
2018-03-15T12:05:44.043Z,77.11
2018-03-15T12:06:44.083Z,74.35
2018-03-15T12:08:37.067Z,75.20
2018-03-15T12:09:37.125Z,77.44
2018-03-15T12:11:30.136Z,72.06
2018-03-15T12:12:30.175Z,71.58
2018-03-15T12:14:23.161Z,74.25
2018-03-15T12:15:23.217Z,76.06
2018-03-15T12:17:16.276Z,73.11
2018-03-15T12:18:16.256Z,73.01
2018-03-15T12:20:09.269Z,73.01
2018-03-15T12:21:09.325Z,73.77
2018-03-15T12:23:02.323Z,72.67
2018-03-15T12:24:02.364Z,72.82
2018-03-15T12:25:55.394Z,74.92
2018-03-15T12:26:55.418Z,75.68
2018-03-15T12:28:48.405Z,76.35
2018-03-15T12:29:48.465Z,75.87
2018-03-15T12:31:41.477Z,74.67
2018-03-15T12:32:41.517Z,74.67
2018-03-15T12:34:34.509Z,76.01
2018-03-15T12:35:34.570Z,74.86
2018-03-15T12:37:27.578Z,75.53
2018-03-15T12:38:27.617Z,75.05
2018-03-15T12:40:21.120Z,72.09
2018-03-15T12:41:21.175Z,73.05
2018-03-15T12:43:14.191Z,74.29
2018-03-15T12:44:14.232Z,74.10
2018-03-15T12:46:07.212Z,73.72
2018-03-15T12:47:07.273Z,73.72
2018-03-15T12:49:00.277Z,72.00
2018-03-15T12:50:00.317Z,71.43
2018-03-15T12:51:53.298Z,70.47
2018-03-15T12:52:53.358Z,71.52
2018-03-15T12:54:46.372Z,70.57
2018-03-15T12:55:46.412Z,70.47
2018-03-15T12:57:39.434Z,72.76
2018-03-15T12:58:39.473Z,72.86
2018-03-15T13:00:32.457Z,72.86
2018-03-15T13:01:32.516Z,71.72
2018-03-15T13:03:25.529Z,72.19
2018-03-15T13:04:25.571Z,72.09
2018-03-15T13:06:18.587Z,71.43
2018-03-15T13:07:18.617Z,71.91
2018-03-15T13:09:11.625Z,71.81
2018-03-15T13:10:11.664Z,71.43
2018-03-15T13:12:04.653Z,71.23
2018-03-15T13:13:04.709Z,71.52
2018-03-15T13:14:57.714Z,71.23
2018-03-15T13:15:57.752Z,71.43
2018-03-15T13:17:50.736Z,71.14
2018-03-15T13:18:50.795Z,70.76
2018-03-15T13:20:43.797Z,71.43
2018-03-15T13:21:43.837Z,71.43
2018-03-15T13:23:36.826Z,71.52
2018-03-15T13:24:36.885Z,70.76
2018-03-15T13:26:29.907Z,70.57
2018-03-15T13:27:29.935Z,71.23
2018-03-15T13:29:22.958Z,71.43
2018-03-15T13:30:22.978Z,71.33
2018-03-15T13:32:15.960Z,70.38
2018-03-15T13:33:16.019Z,70.67
2018-03-15T13:35:09.020Z,70.47
2018-03-15T13:36:09.063Z,70.57
2018-03-15T13:38:02.049Z,70.38
2018-03-15T13:39:02.106Z,70.19
2018-03-15T13:40:55.628Z,69.43
2018-03-15T13:41:55.663Z,70.09
2018-03-15T13:43:48.650Z,70.28
2018-03-15T13:44:48.709Z,70.76
2018-03-15T13:46:41.713Z,70.67
2018-03-15T13:47:41.754Z,70.47
2018-03-15T13:49:34.764Z,70.38
2018-03-15T13:50:34.804Z,70.67
2018-03-15T13:52:27.808Z,70.67
2018-03-15T13:53:27.848Z,70.00
2018-03-15T13:55:20.850Z,70.09
2018-03-15T13:56:20.891Z,70.67
2018-03-15T13:58:13.882Z,69.52
2018-03-15T13:59:13.941Z,68.09
2018-03-15T14:01:06.952Z,68.57
2018-03-15T14:02:06.992Z,68.57
2018-03-15T14:03:59.981Z,68.28
2018-03-15T14:05:00.041Z,67.42
2018-03-15T14:06:53.065Z,67.42
2018-03-15T14:07:53.103Z,67.04
2018-03-15T14:09:46.096Z,67.07
2018-03-15T14:10:46.154Z,67.17
2018-03-15T14:12:39.156Z,67.27
2018-03-15T14:13:39.195Z,67.23
2018-03-15T14:15:32.185Z,66.78
2018-03-15T14:16:32.242Z,67.07
2018-03-15T14:18:25.244Z,66.31
2018-03-15T14:19:25.285Z,66.02
2018-03-15T14:21:18.305Z,66.88
2018-03-15T14:22:18.331Z,67.55
2018-03-15T14:24:11.336Z,67.99
2018-03-15T14:25:11.399Z,67.04
2018-03-15T14:27:04.399Z,67.65
2018-03-15T14:28:04.440Z,67.90
2018-03-15T14:29:57.443Z,68.57
2018-03-15T14:30:57.504Z,68.95
2018-03-15T14:32:50.509Z,68.95
2018-03-15T14:33:50.579Z,68.95
2018-03-15T14:35:43.537Z,69.20
2018-03-15T14:36:43.598Z,69.62
2018-03-15T14:38:36.603Z,70.57
2018-03-15T14:39:36.643Z,70.67
2018-03-15T14:41:30.167Z,70.19
2018-03-15T14:42:30.198Z,69.43
2018-03-15T14:44:23.198Z,69.48
2018-03-15T14:45:23.238Z,70.15
2018-03-15T14:47:16.264Z,69.58
2018-03-15T14:48:16.284Z,69.77
2018-03-15T14:50:09.272Z,70.92
2018-03-15T14:51:09.333Z,70.67
2018-03-15T14:53:02.337Z,71.81
2018-03-15T14:54:02.416Z,69.48
2018-03-15T14:55:55.364Z,70.15
2018-03-15T14:56:55.423Z,70.15
2018-03-15T14:58:48.430Z,70.53
2018-03-15T14:59:48.479Z,70.72
2018-03-15T15:01:41.459Z,70.92
2018-03-15T15:02:41.518Z,71.68
2018-03-15T15:04:34.536Z,70.82
2018-03-15T15:05:34.576Z,70.82
2018-03-15T15:07:27.559Z,70.92
2018-03-15T15:08:27.622Z,70.63
2018-03-15T15:10:20.627Z,71.48
2018-03-15T15:11:20.702Z,71.01
2018-03-15T15:13:13.687Z,70.63
2018-03-15T15:14:13.715Z,71.48
2018-03-15T15:16:06.700Z,71.30
2018-03-15T15:17:06.759Z,71.48
2018-03-15T15:18:59.762Z,71.39
2018-03-15T15:19:59.800Z,71.77
2018-03-15T15:21:52.790Z,71.58
2018-03-15T15:22:52.848Z,71.58
2018-03-15T15:24:45.852Z,71.48
2018-03-15T15:25:45.897Z,71.39
2018-03-15T15:27:38.880Z,71.20
2018-03-15T15:28:38.941Z,71.58
2018-03-15T15:30:31.943Z,72.06
2018-03-15T15:31:31.984Z,72.16
2018-03-15T15:33:24.963Z,71.87
2018-03-15T15:34:25.024Z,72.53
2018-03-15T15:36:18.035Z,72.34
2018-03-15T15:37:18.074Z,72.92
2018-03-15T15:39:11.083Z,73.21
2018-03-15T15:40:11.124Z,73.68
2018-03-15T15:42:04.115Z,73.96
2018-03-15T15:43:04.165Z,73.49
2018-03-15T15:44:57.164Z,73.55
2018-03-15T15:45:57.224Z,73.45
2018-03-15T15:47:50.194Z,73.83
2018-03-15T15:48:50.257Z,72.69
2018-03-15T15:50:43.257Z,73.74
2018-03-15T15:51:43.297Z,73.65
2018-03-15T15:53:36.284Z,72.41
2018-03-15T15:54:36.342Z,72.78
2018-03-15T15:56:29.344Z,72.31
2018-03-15T15:57:29.389Z,72.97
2018-03-15T15:59:22.372Z,74.60
2018-03-15T16:00:22.430Z,74.60
2018-03-15T16:02:16.282Z,74.50
2018-03-15T16:03:15.544Z,76.03
2018-03-15T16:05:09.460Z,75.07
2018-03-15T16:06:08.653Z,76.12
2018-03-15T16:08:03.011Z,76.50
2018-03-15T16:09:02.939Z,75.74
2018-03-15T16:10:55.938Z,76.31
2018-03-15T16:11:56.260Z,76.94
2018-03-15T16:13:48.973Z,77.07
2018-03-15T16:14:49.033Z,77.36
2018-03-15T16:16:42.031Z,77.32
2018-03-15T16:17:42.070Z,77.83
2018-03-15T16:19:35.090Z,79.22
2018-03-15T16:20:35.152Z,78.46
2018-03-15T16:22:28.148Z,79.13
2018-03-15T16:23:28.204Z,78.46
2018-03-15T16:25:21.178Z,78.65
2018-03-15T16:26:21.228Z,78.75
2018-03-15T16:28:14.410Z,79.41
2018-03-15T16:29:14.306Z,79.41
2018-03-15T16:31:07.287Z,80.08
2018-03-15T16:32:07.364Z,79.89
2018-03-15T16:34:00.316Z,80.36
2018-03-15T16:35:00.378Z,80.27
2018-03-15T16:36:53.402Z,80.55
2018-03-15T16:37:53.421Z,81.60
2018-03-15T16:39:46.407Z,82.08
2018-03-15T16:40:46.463Z,81.51
2018-03-15T16:42:39.471Z,81.41
2018-03-15T16:43:39.511Z,81.60
2018-03-15T16:45:32.494Z,81.89
2018-03-15T16:46:32.553Z,81.79
2018-03-15T16:48:25.554Z,81.51
2018-03-15T16:49:25.598Z,81.89
2018-03-15T16:51:18.583Z,82.46
2018-03-15T16:52:18.640Z,82.46
2018-03-15T16:54:11.640Z,83.22
2018-03-15T16:55:11.678Z,83.22
2018-03-15T16:57:04.659Z,83.22
2018-03-15T16:58:04.718Z,82.18
2018-03-15T16:59:57.776Z,83.13
2018-03-15T17:00:57.768Z,83.70
2018-03-15T17:02:50.767Z,83.98
2018-03-15T17:03:50.808Z,84.75
2018-03-15T17:05:44.337Z,84.61
2018-03-15T17:06:44.360Z,84.99
2018-03-15T17:08:37.363Z,85.08
2018-03-15T17:09:37.403Z,85.18
2018-03-15T17:11:30.392Z,85.18
2018-03-15T17:12:30.446Z,85.18
2018-03-15T17:14:23.451Z,85.75
2018-03-15T17:15:23.489Z,86.04
2018-03-15T17:17:16.476Z,86.51
2018-03-15T17:18:16.532Z,86.22
2018-03-15T17:20:09.533Z,86.51
2018-03-15T17:21:09.570Z,86.70
2018-03-15T17:23:02.564Z,87.46
2018-03-15T17:24:02.616Z,87.56
2018-03-15T17:25:55.617Z,87.65
2018-03-15T17:26:55.655Z,87.27
2018-03-15T17:28:48.657Z,86.99
2018-03-15T17:29:48.697Z,87.18
2018-03-15T17:31:41.678Z,87.75
2018-03-15T17:32:41.737Z,87.94
2018-03-15T17:34:34.740Z,88.42
2018-03-15T17:35:34.779Z,88.32
2018-03-15T17:37:27.761Z,88.42
2018-03-15T17:38:27.817Z,88.32
2018-03-15T17:40:20.818Z,88.13
2018-03-15T17:41:20.858Z,88.51
2018-03-15T17:43:13.837Z,88.32
2018-03-15T17:44:13.896Z,88.70
2018-03-15T17:46:06.895Z,88.70
2018-03-15T17:47:06.932Z,89.37
2018-03-15T17:48:59.916Z,88.70
2018-03-15T17:49:59.973Z,88.99
2018-03-15T17:51:52.973Z,89.23
2018-03-15T17:52:53.013Z,88.56
2018-03-15T17:54:46.026Z,89.51
2018-03-15T17:55:46.051Z,89.32
2018-03-15T17:57:39.030Z,89.89
2018-03-15T17:58:39.088Z,89.14
2018-03-15T18:00:32.088Z,89.23
2018-03-15T18:01:32.127Z,89.23
2018-03-15T18:03:25.105Z,89.99
2018-03-15T18:04:25.164Z,89.32
2018-03-15T18:06:18.673Z,89.42
2018-03-15T18:07:18.711Z,89.70
2018-03-15T18:09:11.704Z,90.47
2018-03-15T18:10:11.764Z,90.08
2018-03-15T18:12:04.768Z,90.18
2018-03-15T18:13:04.806Z,90.08
2018-03-15T18:14:57.798Z,90.18
2018-03-15T18:15:57.891Z,89.99
2018-03-15T18:17:50.846Z,90.28
2018-03-15T18:18:50.885Z,90.28
2018-03-15T18:20:43.864Z,90.37
2018-03-15T18:21:43.949Z,90.47
2018-03-15T18:23:36.926Z,90.08
2018-03-15T18:24:36.966Z,90.37
2018-03-15T18:26:29.966Z,90.84
2018-03-15T18:27:30.029Z,90.56
2018-03-15T18:29:23.005Z,91.13
2018-03-15T18:30:23.047Z,91.22
2018-03-15T18:32:16.047Z,91.03
2018-03-15T18:33:16.087Z,91.13
2018-03-15T18:35:09.071Z,91.18